Paganini — V2CL8 — position and weather

sailwx.info

Track history (hours):
 
Tides and Currents Weather Stations Pressure Air Temp Water Temp Dewpoint Dewpoint Depression Visibility Wind Speed Wind Dir Waves Ship Positions

Paganini

Last reported at 2016-Dec-03 07:27 UTC. Time now 2016-Dec-03 17:38 UTC.
Position N 41°56' W 010°07'.

Length 90 m; draft 5.7 m.

Type: Cargo ship. MMSI: 305040000.

Date/timePositionNaut miles runAvg speedWind from/ knotsBaromVisibWave heightAir tempDewpointWater temp
2016-Dec-03 07:27N 41°56' W 010°07'7 7.4
2016-Dec-03 06:33N 42°02' W 010°07'8 7.9
2016-Dec-03 05:32N 42°10' W 010°07'8 8.1
2016-Dec-03 04:33N 42°18' W 010°07'8 8.2
2016-Dec-03 03:33N 42°26' W 010°07'8 8.1
2016-Dec-03 02:33N 42°35' W 010°07'8 8.5
2016-Dec-03 01:33N 42°43' W 010°07'8 8.4
2016-Dec-03 00:33N 42°52' W 010°07'9 8.7
2016-Dec-02 23:32N 43°00' W 010°07'9 9.1
2016-Dec-02 22:33N 43°09' W 010°07'9 8.9
2016-Dec-02 21:33N 43°18' W 010°06'9 8.7
2016-Dec-02 20:33N 43°26' W 010°01'9 8.6
2016-Dec-02 19:33N 43°35' W 009°59'10 8.4
2016-Dec-02 18:19N 43°45' W 009°59'7 8.4
2016-Dec-02 17:32N 43°51' W 009°59'  
2016-Nov-30 13:19N 50°40' W 010°41'15 7.9
2016-Nov-30 11:28N 50°55' W 010°43'8 8.3
2016-Nov-30 10:33N 51°02' W 010°44'12 8.6
2016-Nov-30 09:11N 51°14' W 010°46'9 8.6
2016-Nov-30 08:11N 51°23' W 010°47'  
2016-Nov-27 02:09N 51°35' W 010°23'711.1
2016-Nov-27 01:33N 51°32' W 010°13'1110.9
2016-Nov-27 00:33N 51°27' W 009°58'1110.9
2016-Nov-26 23:33N 51°22' W 009°42'1110.7
2016-Nov-26 22:33N 51°23' W 009°25'1111.5
2016-Nov-26 21:33N 51°27' W 009°07'1211.8
2016-Nov-26 20:33N 51°31' W 008°50'1211.8
2016-Nov-26 19:33N 51°35' W 008°32'1211.7
2016-Nov-26 18:33N 51°39' W 008°14'1110.8
2016-Nov-26 17:33N 51°43' W 007°58'1010.0
2016-Nov-26 16:33N 51°46' W 007°43'10 9.8
2016-Nov-26 15:33N 51°49' W 007°28'10 9.8
2016-Nov-26 14:33N 51°53' W 007°13'1010.0
2016-Nov-26 13:33N 51°56' W 006°58'1110.5
2016-Nov-26 12:33N 52°00' W 006°42'110 8.5
2016-Nov-25 23:33N 53°47' W 005°58'1010.1
2016-Nov-25 22:33N 53°57' W 006°00'  
2016-Nov-23 12:12N 54°02' W 006°08'5 6.8
2016-Nov-23 11:28N 53°60' W 006°01'0 0.1
2016-Nov-23 10:32N 53°60' W 006°00'8 8.2
2016-Nov-23 09:30N 53°51' W 005°58'  
Track history (hours):
 
Tides and Currents Weather Stations Pressure Air Temp Water Temp Dewpoint Dewpoint Depression Visibility Wind Speed Wind Dir Waves Ship Positions

Paganini

Last reported at 2016-Dec-03 07:27 UTC. Time now 2016-Dec-03 17:38 UTC.
Position N 41°56' W 010°07'.

Length 90 m; draft 5.7 m.

Type: Cargo ship. MMSI: 305040000.

Date/timePositionNaut miles runAvg speedWind from/ knotsBaromVisibWave heightAir tempDewpointWater temp
2016-Dec-03 07:27N 41°56' W 010°07'7 7.4
2016-Dec-03 06:33N 42°02' W 010°07'8 7.9
2016-Dec-03 05:32N 42°10' W 010°07'8 8.1
2016-Dec-03 04:33N 42°18' W 010°07'8 8.2
2016-Dec-03 03:33N 42°26' W 010°07'8 8.1
2016-Dec-03 02:33N 42°35' W 010°07'8 8.5
2016-Dec-03 01:33N 42°43' W 010°07'8 8.4
2016-Dec-03 00:33N 42°52' W 010°07'9 8.7
2016-Dec-02 23:32N 43°00' W 010°07'9 9.1
2016-Dec-02 22:33N 43°09' W 010°07'9 8.9
2016-Dec-02 21:33N 43°18' W 010°06'9 8.7
2016-Dec-02 20:33N 43°26' W 010°01'9 8.6
2016-Dec-02 19:33N 43°35' W 009°59'10 8.4
2016-Dec-02 18:19N 43°45' W 009°59'7 8.4
2016-Dec-02 17:32N 43°51' W 009°59'  
2016-Nov-30 13:19N 50°40' W 010°41'15 7.9
2016-Nov-30 11:28N 50°55' W 010°43'8 8.3
2016-Nov-30 10:33N 51°02' W 010°44'12 8.6
2016-Nov-30 09:11N 51°14' W 010°46'9 8.6
2016-Nov-30 08:11N 51°23' W 010°47'  
2016-Nov-27 02:09N 51°35' W 010°23'711.1
2016-Nov-27 01:33N 51°32' W 010°13'1110.9
2016-Nov-27 00:33N 51°27' W 009°58'1110.9
2016-Nov-26 23:33N 51°22' W 009°42'1110.7
2016-Nov-26 22:33N 51°23' W 009°25'1111.5
2016-Nov-26 21:33N 51°27' W 009°07'1211.8
2016-Nov-26 20:33N 51°31' W 008°50'1211.8
2016-Nov-26 19:33N 51°35' W 008°32'1211.7
2016-Nov-26 18:33N 51°39' W 008°14'1110.8
2016-Nov-26 17:33N 51°43' W 007°58'1010.0
2016-Nov-26 16:33N 51°46' W 007°43'10 9.8
2016-Nov-26 15:33N 51°49' W 007°28'10 9.8
2016-Nov-26 14:33N 51°53' W 007°13'1010.0
2016-Nov-26 13:33N 51°56' W 006°58'1110.5
2016-Nov-26 12:33N 52°00' W 006°42'110 8.5
2016-Nov-25 23:33N 53°47' W 005°58'1010.1
2016-Nov-25 22:33N 53°57' W 006°00'  
2016-Nov-23 12:12N 54°02' W 006°08'5 6.8
2016-Nov-23 11:28N 53°60' W 006°01'0 0.1
2016-Nov-23 10:32N 53°60' W 006°00'8 8.2
2016-Nov-23 09:30N 53°51' W 005°58'  

Dump ship's entire track history